sensor_id;sensor_type;location;lat;lon;timestamp;pressure;altitude;pressure_sealevel;temperature;humidity
71149;BME280;59072;42.144;25.200;2023-08-31T00:00:48;99254.53;;;23.58;52.58
71149;BME280;59072;42.144;25.200;2023-08-31T00:03:16;99262.91;;;23.36;54.07
71149;BME280;59072;42.144;25.200;2023-08-31T00:05:43;99253.09;;;23.52;53.30
71149;BME280;59072;42.144;25.200;2023-08-31T00:08:09;99243.88;;;23.36;54.35
71149;BME280;59072;42.144;25.200;2023-08-31T00:10:35;99258.91;;;23.42;53.68
71149;BME280;59072;42.144;25.200;2023-08-31T00:13:01;99267.78;;;23.69;52.50
71149;BME280;59072;42.144;25.200;2023-08-31T00:15:29;99269.44;;;23.43;53.93
71149;BME280;59072;42.144;25.200;2023-08-31T00:17:58;99255.25;;;23.20;55.42
71149;BME280;59072;42.144;25.200;2023-08-31T00:20:50;99265.00;;;23.30;57.07
71149;BME280;59072;42.144;25.200;2023-08-31T00:23:15;99267.06;;;23.42;55.78
71149;BME280;59072;42.144;25.200;2023-08-31T00:25:41;99267.88;;;23.25;57.02
71149;BME280;59072;42.144;25.200;2023-08-31T00:28:09;99272.88;;;23.05;57.97
71149;BME280;59072;42.144;25.200;2023-08-31T00:30:34;99269.31;;;23.22;57.99
71149;BME280;59072;42.144;25.200;2023-08-31T00:33:00;99288.22;;;23.27;56.17
71149;BME280;59072;42.144;25.200;2023-08-31T00:35:26;99291.88;;;23.32;56.37
71149;BME280;59072;42.144;25.200;2023-08-31T00:37:55;99294.41;;;23.45;56.22
71149;BME280;59072;42.144;25.200;2023-08-31T00:40:24;99296.16;;;23.50;55.98
71149;BME280;59072;42.144;25.200;2023-08-31T00:42:50;99305.25;;;23.63;56.38
71149;BME280;59072;42.144;25.200;2023-08-31T00:45:17;99301.63;;;23.50;54.13
71149;BME280;59072;42.144;25.200;2023-08-31T00:47:43;99300.66;;;23.46;53.88
71149;BME280;59072;42.144;25.200;2023-08-31T00:50:12;99300.19;;;23.26;53.84
71149;BME280;59072;42.144;25.200;2023-08-31T00:52:38;99305.16;;;23.42;54.11
71149;BME280;59072;42.144;25.200;2023-08-31T00:55:06;99296.53;;;23.22;56.63
71149;BME280;59072;42.144;25.200;2023-08-31T00:57:33;99304.34;;;23.50;57.40
71149;BME280;59072;42.144;25.200;2023-08-31T00:59:59;99302.72;;;23.49;54.82
71149;BME280;59072;42.144;25.200;2023-08-31T01:03:22;99311.53;;;23.46;53.06
71149;BME280;59072;42.144;25.200;2023-08-31T01:05:46;99311.06;;;23.35;51.79
71149;BME280;59072;42.144;25.200;2023-08-31T01:11:45;99313.44;;;23.45;54.70
71149;BME280;59072;42.144;25.200;2023-08-31T01:14:18;99312.84;;;23.40;56.62
71149;BME280;59072;42.144;25.200;2023-08-31T01:17:13;99314.59;;;23.27;55.13
71149;BME280;59072;42.144;25.200;2023-08-31T01:23:10;99310.25;;;23.00;56.78
71149;BME280;59072;42.144;25.200;2023-08-31T01:25:47;99324.34;;;22.84;57.88
71149;BME280;59072;42.144;25.200;2023-08-31T01:28:13;99313.97;;;22.86;59.02
71149;BME280;59072;42.144;25.200;2023-08-31T01:30:49;99312.47;;;22.72;58.72
71149;BME280;59072;42.144;25.200;2023-08-31T01:33:17;99329.25;;;22.48;59.34
71149;BME280;59072;42.144;25.200;2023-08-31T01:35:46;99328.72;;;22.37;60.27
71149;BME280;59072;42.144;25.200;2023-08-31T01:38:17;99328.28;;;22.52;60.37
71149;BME280;59072;42.144;25.200;2023-08-31T01:41:19;99329.44;;;22.20;60.18
71149;BME280;59072;42.144;25.200;2023-08-31T01:43:57;99349.72;;;22.14;57.91
71149;BME280;59072;42.144;25.200;2023-08-31T01:46:23;99335.88;;;22.24;59.86
71149;BME280;59072;42.144;25.200;2023-08-31T01:48:49;99331.81;;;22.13;59.95
71149;BME280;59072;42.144;25.200;2023-08-31T01:51:33;99329.38;;;22.02;59.67
71149;BME280;59072;42.144;25.200;2023-08-31T01:54:25;99345.97;;;22.32;61.34
71149;BME280;59072;42.144;25.200;2023-08-31T01:56:50;99329.06;;;22.35;60.39
71149;BME280;59072;42.144;25.200;2023-08-31T01:59:28;99345.69;;;22.42;60.54
71149;BME280;59072;42.144;25.200;2023-08-31T02:01:54;99353.53;;;22.44;60.42
71149;BME280;59072;42.144;25.200;2023-08-31T02:04:19;99355.41;;;22.35;60.19
71149;BME280;59072;42.144;25.200;2023-08-31T02:06:44;99349.78;;;21.91;60.82
71149;BME280;59072;42.144;25.200;2023-08-31T02:09:10;99344.59;;;22.21;59.42
71149;BME280;59072;42.144;25.200;2023-08-31T02:11:35;99356.84;;;22.32;60.64
71149;BME280;59072;42.144;25.200;2023-08-31T02:14:04;99371.59;;;22.57;60.38
71149;BME280;59072;42.144;25.200;2023-08-31T02:16:30;99361.41;;;22.63;59.34
71149;BME280;59072;42.144;25.200;2023-08-31T02:19:14;99363.34;;;22.71;59.18
71149;BME280;59072;42.144;25.200;2023-08-31T02:21:42;99355.97;;;22.23;62.15
71149;BME280;59072;42.144;25.200;2023-08-31T02:24:16;99371.06;;;22.06;59.79
71149;BME280;59072;42.144;25.200;2023-08-31T02:26:42;99365.19;;;22.53;60.90
71149;BME280;59072;42.144;25.200;2023-08-31T02:29:19;99355.94;;;22.45;59.59
71149;BME280;59072;42.144;25.200;2023-08-31T02:31:45;99352.25;;;22.50;59.50
71149;BME280;59072;42.144;25.200;2023-08-31T02:34:10;99365.09;;;22.76;59.65
71149;BME280;59072;42.144;25.200;2023-08-31T02:36:36;99371.97;;;22.64;59.25
71149;BME280;59072;42.144;25.200;2023-08-31T02:39:01;99371.94;;;22.56;60.14
71149;BME280;59072;42.144;25.200;2023-08-31T02:41:28;99356.91;;;22.18;61.53
71149;BME280;59072;42.144;25.200;2023-08-31T02:43:54;99365.38;;;22.17;59.57
71149;BME280;59072;42.144;25.200;2023-08-31T02:49:32;99382.94;;;21.88;62.01
71149;BME280;59072;42.144;25.200;2023-08-31T02:52:20;99380.59;;;21.95;62.09
71149;BME280;59072;42.144;25.200;2023-08-31T02:54:46;99390.06;;;22.06;61.27
71149;BME280;59072;42.144;25.200;2023-08-31T02:57:29;99388.88;;;21.90;62.78
71149;BME280;59072;42.144;25.200;2023-08-31T03:00:24;99390.28;;;22.19;62.13
71149;BME280;59072;42.144;25.200;2023-08-31T03:02:50;99400.91;;;21.98;62.39
71149;BME280;59072;42.144;25.200;2023-08-31T03:05:26;99410.56;;;22.35;59.54
71149;BME280;59072;42.144;25.200;2023-08-31T03:07:51;99400.28;;;22.01;61.92
71149;BME280;59072;42.144;25.200;2023-08-31T03:10:29;99405.41;;;21.80;63.27
71149;BME280;59072;42.144;25.200;2023-08-31T03:12:54;99414.28;;;21.72;61.40
71149;BME280;59072;42.144;25.200;2023-08-31T03:15:28;99411.03;;;21.83;61.78
71149;BME280;59072;42.144;25.200;2023-08-31T03:17:53;99411.03;;;21.83;63.23
71149;BME280;59072;42.144;25.200;2023-08-31T03:20:32;99409.44;;;22.14;62.37
71149;BME280;59072;42.144;25.200;2023-08-31T03:22:57;99421.69;;;21.80;61.75
71149;BME280;59072;42.144;25.200;2023-08-31T03:25:32;99423.66;;;21.88;62.23
71149;BME280;59072;42.144;25.200;2023-08-31T03:27:57;99415.22;;;21.90;61.99
71149;BME280;59072;42.144;25.200;2023-08-31T03:30:43;99421.88;;;21.83;62.98
71149;BME280;59072;42.144;25.200;2023-08-31T03:33:34;99417.50;;;21.74;62.84
71149;BME280;59072;42.144;25.200;2023-08-31T03:36:01;99415.53;;;21.65;60.51
71149;BME280;59072;42.144;25.200;2023-08-31T03:38:37;99413.69;;;21.75;60.76
71149;BME280;59072;42.144;25.200;2023-08-31T03:41:03;99413.88;;;21.56;61.04
71149;BME280;59072;42.144;25.200;2023-08-31T03:43:38;99405.13;;;21.59;62.87
71149;BME280;59072;42.144;25.200;2023-08-31T03:46:04;99414.53;;;21.84;61.90
71149;BME280;59072;42.144;25.200;2023-08-31T03:48:38;99425.84;;;22.08;61.53
71149;BME280;59072;42.144;25.200;2023-08-31T03:51:04;99427.00;;;22.07;61.00
71149;BME280;59072;42.144;25.200;2023-08-31T03:53:47;99425.69;;;22.27;60.67
71149;BME280;59072;42.144;25.200;2023-08-31T03:56:42;99424.56;;;21.75;62.70
71149;BME280;59072;42.144;25.200;2023-08-31T03:59:07;99429.19;;;21.38;63.17
71149;BME280;59072;42.144;25.200;2023-08-31T04:01:45;99433.31;;;21.35;63.44
71149;BME280;59072;42.144;25.200;2023-08-31T04:04:10;99430.75;;;21.16;63.43
71149;BME280;59072;42.144;25.200;2023-08-31T04:07:02;99438.78;;;21.21;64.36
71149;BME280;59072;42.144;25.200;2023-08-31T04:09:45;99445.75;;;21.50;63.55
71149;BME280;59072;42.144;25.200;2023-08-31T04:12:11;99436.84;;;21.72;62.14
71149;BME280;59072;42.144;25.200;2023-08-31T04:14:48;99447.72;;;21.58;63.14
71149;BME280;59072;42.144;25.200;2023-08-31T04:17:13;99452.03;;;21.59;62.65
71149;BME280;59072;42.144;25.200;2023-08-31T04:19:50;99455.09;;;21.80;62.41
71149;BME280;59072;42.144;25.200;2023-08-31T04:22:16;99459.44;;;21.67;61.14
71149;BME280;59072;42.144;25.200;2023-08-31T04:24:52;99457.47;;;21.59;62.34
71149;BME280;59072;42.144;25.200;2023-08-31T04:27:18;99474.25;;;21.61;62.62
71149;BME280;59072;42.144;25.200;2023-08-31T04:29:55;99467.72;;;21.85;61.02
71149;BME280;59072;42.144;25.200;2023-08-31T04:32:20;99480.06;;;21.69;59.40
71149;BME280;59072;42.144;25.200;2023-08-31T04:34:55;99486.84;;;21.80;61.34
71149;BME280;59072;42.144;25.200;2023-08-31T04:37:21;99476.47;;;22.04;60.49
71149;BME280;59072;42.144;25.200;2023-08-31T04:40:16;99488.69;;;22.16;58.18
71149;BME280;59072;42.144;25.200;2023-08-31T04:43:07;99497.94;;;22.15;56.87
71149;BME280;59072;42.144;25.200;2023-08-31T04:46:00;99491.31;;;22.52;57.57
71149;BME280;59072;42.144;25.200;2023-08-31T04:48:25;99499.78;;;22.91;55.37
71149;BME280;59072;42.144;25.200;2023-08-31T04:51:00;99489.69;;;22.82;55.40
71149;BME280;59072;42.144;25.200;2023-08-31T04:53:25;99494.50;;;22.94;53.17
71149;BME280;59072;42.144;25.200;2023-08-31T04:56:03;99500.13;;;22.98;52.91
71149;BME280;59072;42.144;25.200;2023-08-31T04:58:28;99505.84;;;22.87;52.82
71149;BME280;59072;42.144;25.200;2023-08-31T05:01:03;99514.38;;;22.95;52.97
71149;BME280;59072;42.144;25.200;2023-08-31T05:03:28;99509.56;;;23.00;53.66
71149;BME280;59072;42.144;25.200;2023-08-31T05:06:06;99511.22;;;23.10;53.06
71149;BME280;59072;42.144;25.200;2023-08-31T05:08:35;99521.81;;;23.20;52.72
71149;BME280;59072;42.144;25.200;2023-08-31T05:11:00;99505.00;;;23.18;51.40
71149;BME280;59072;42.144;25.200;2023-08-31T05:13:25;99517.03;;;23.26;51.60
71149;BME280;59072;42.144;25.200;2023-08-31T05:16:09;99517.03;;;23.35;51.43
71149;BME280;59072;42.144;25.200;2023-08-31T05:18:35;99508.50;;;23.10;52.17
71149;BME280;59072;42.144;25.200;2023-08-31T05:21:01;99516.72;;;23.27;51.58
71149;BME280;59072;42.144;25.200;2023-08-31T05:23:27;99521.06;;;23.55;51.30
71149;BME280;59072;42.144;25.200;2023-08-31T05:26:11;99522.81;;;23.42;51.35
71149;BME280;59072;42.144;25.200;2023-08-31T05:28:36;99525.88;;;23.58;50.50
71149;BME280;59072;42.144;25.200;2023-08-31T05:31:30;99507.97;;;23.74;50.17
71149;BME280;59072;42.144;25.200;2023-08-31T05:33:55;99517.72;;;23.66;50.97
71149;BME280;59072;42.144;25.200;2023-08-31T05:36:20;99509.09;;;23.64;51.48
71149;BME280;59072;42.144;25.200;2023-08-31T05:39:06;99511.34;;;23.80;51.03
71149;BME280;59072;42.144;25.200;2023-08-31T05:42:08;99517.91;;;23.96;50.80
71149;BME280;59072;42.144;25.200;2023-08-31T05:45:08;99507.00;;;24.05;50.64
71149;BME280;59072;42.144;25.200;2023-08-31T05:48:10;99520.13;;;24.12;49.66
71149;BME280;59072;42.144;25.200;2023-08-31T05:51:02;99514.81;;;24.24;50.13
71149;BME280;59072;42.144;25.200;2023-08-31T05:53:29;99521.69;;;24.39;49.40
71149;BME280;59072;42.144;25.200;2023-08-31T05:56:04;99525.69;;;24.41;49.65
71149;BME280;59072;42.144;25.200;2023-08-31T06:02:04;99526.91;;;24.70;47.73
71149;BME280;59072;42.144;25.200;2023-08-31T06:04:32;99519.84;;;24.69;48.43
71149;BME280;59072;42.144;25.200;2023-08-31T06:07:06;99518.06;;;24.73;47.22
71149;BME280;59072;42.144;25.200;2023-08-31T06:09:32;99516.19;;;24.65;48.46
71149;BME280;59072;42.144;25.200;2023-08-31T06:12:00;99519.78;;;24.86;47.69
71149;BME280;59072;42.144;25.200;2023-08-31T06:14:28;99516.88;;;24.92;46.91
71149;BME280;59072;42.144;25.200;2023-08-31T06:17:12;99522.75;;;25.02;47.10
71149;BME280;59072;42.144;25.200;2023-08-31T06:20:12;99529.78;;;25.12;46.84
71149;BME280;59072;42.144;25.200;2023-08-31T06:22:38;99529.03;;;25.33;46.11
71149;BME280;59072;42.144;25.200;2023-08-31T06:25:21;99534.31;;;25.38;45.56
71149;BME280;59072;42.144;25.200;2023-08-31T06:28:13;99536.28;;;25.29;45.12
71149;BME280;59072;42.144;25.200;2023-08-31T06:30:38;99534.03;;;25.52;44.81
71149;BME280;59072;42.144;25.200;2023-08-31T06:33:22;99545.41;;;25.62;44.11
71149;BME280;59072;42.144;25.200;2023-08-31T06:36:16;99542.53;;;25.59;43.93
71149;BME280;59072;42.144;25.200;2023-08-31T06:38:42;99538.59;;;25.69;44.11
71149;BME280;59072;42.144;25.200;2023-08-31T06:41:20;99546.56;;;25.74;44.23
71149;BME280;59072;42.144;25.200;2023-08-31T06:43:45;99550.38;;;26.02;43.42
71149;BME280;59072;42.144;25.200;2023-08-31T06:46:19;99540.00;;;25.96;43.69
71149;BME280;59072;42.144;25.200;2023-08-31T06:48:45;99542.41;;;25.97;44.20
71149;BME280;59072;42.144;25.200;2023-08-31T06:51:29;99544.09;;;26.23;43.53
71149;BME280;59072;42.144;25.200;2023-08-31T06:54:30;99547.31;;;26.37;43.33
71149;BME280;59072;42.144;25.200;2023-08-31T06:57:24;99534.38;;;26.46;43.74
71149;BME280;59072;42.144;25.200;2023-08-31T06:59:50;99541.28;;;26.65;42.70
71149;BME280;59072;42.144;25.200;2023-08-31T07:02:26;99535.59;;;26.95;42.43
71149;BME280;59072;42.144;25.200;2023-08-31T07:04:51;99544.72;;;27.11;41.81
71149;BME280;59072;42.144;25.200;2023-08-31T07:07:26;99554.22;;;27.38;40.07
71149;BME280;59072;42.144;25.200;2023-08-31T07:09:52;99552.91;;;27.48;39.16
71149;BME280;59072;42.144;25.200;2023-08-31T07:12:25;99558.81;;;27.75;40.21
71149;BME280;59072;42.144;25.200;2023-08-31T07:14:51;99560.25;;;27.97;39.06
71149;BME280;59072;42.144;25.200;2023-08-31T07:17:28;99555.31;;;28.02;37.80
71149;BME280;59072;42.144;25.200;2023-08-31T07:19:54;99556.47;;;28.01;38.09
71149;BME280;59072;42.144;25.200;2023-08-31T07:22:32;99568.72;;;28.20;37.53
71149;BME280;59072;42.144;25.200;2023-08-31T07:24:58;99562.44;;;27.91;37.71
71149;BME280;59072;42.144;25.200;2023-08-31T07:27:32;99566.44;;;27.94;37.55
71149;BME280;59072;42.144;25.200;2023-08-31T07:29:58;99565.53;;;28.18;38.04
71149;BME280;59072;42.144;25.200;2023-08-31T07:32:33;99572.91;;;28.30;36.40
71149;BME280;59072;42.144;25.200;2023-08-31T07:34:58;99565.16;;;28.48;36.47
71149;BME280;59072;42.144;25.200;2023-08-31T07:37:39;99565.09;;;28.60;37.01
71149;BME280;59072;42.144;25.200;2023-08-31T07:40:05;99566.00;;;28.64;36.70
71149;BME280;59072;42.144;25.200;2023-08-31T07:42:54;99566.72;;;28.93;36.48
71149;BME280;59072;42.144;25.200;2023-08-31T07:45:41;99564.97;;;29.16;36.29
71149;BME280;59072;42.144;25.200;2023-08-31T07:48:06;99561.16;;;29.21;36.25
71149;BME280;59072;42.144;25.200;2023-08-31T07:50:46;99544.03;;;29.28;37.21
71149;BME280;59072;42.144;25.200;2023-08-31T07:53:12;99554.47;;;29.38;35.96
71149;BME280;59072;42.144;25.200;2023-08-31T07:55:54;99561.69;;;29.27;35.99
71149;BME280;59072;42.144;25.200;2023-08-31T08:01:47;99549.69;;;29.35;36.30
71149;BME280;59072;42.144;25.200;2023-08-31T08:04:12;99557.25;;;29.57;36.29
71149;BME280;59072;42.144;25.200;2023-08-31T08:06:49;99562.09;;;29.64;35.88
71149;BME280;59072;42.144;25.200;2023-08-31T08:09:15;99558.47;;;29.76;35.53
71149;BME280;59072;42.144;25.200;2023-08-31T08:11:50;99555.06;;;29.82;35.70
71149;BME280;59072;42.144;25.200;2023-08-31T08:14:16;99562.66;;;29.89;35.35
71149;BME280;59072;42.144;25.200;2023-08-31T08:16:50;99552.91;;;29.92;35.84
71149;BME280;59072;42.144;25.200;2023-08-31T08:19:50;99548.72;;;29.98;36.10
71149;BME280;59072;42.144;25.200;2023-08-31T08:22:15;99546.16;;;29.89;36.21
71149;BME280;59072;42.144;25.200;2023-08-31T08:24:53;99543.63;;;30.19;35.55
71149;BME280;59072;42.144;25.200;2023-08-31T08:27:19;99550.34;;;30.41;35.00
71149;BME280;59072;42.144;25.200;2023-08-31T08:29:54;99552.25;;;30.60;35.52
71149;BME280;59072;42.144;25.200;2023-08-31T08:32:20;99551.47;;;31.06;34.84
71149;BME280;59072;42.144;25.200;2023-08-31T08:35:06;99549.22;;;31.15;33.99
71149;BME280;59072;42.144;25.200;2023-08-31T08:37:59;99546.13;;;30.71;34.78
71149;BME280;59072;42.144;25.200;2023-08-31T08:40:25;99543.78;;;30.69;34.80
71149;BME280;59072;42.144;25.200;2023-08-31T08:43:06;99551.09;;;30.84;34.43
71149;BME280;59072;42.144;25.200;2023-08-31T08:45:38;99550.28;;;30.84;34.71
71149;BME280;59072;42.144;25.200;2023-08-31T08:48:14;99538.25;;;30.92;34.47
71149;BME280;59072;42.144;25.200;2023-08-31T08:50:40;99549.13;;;30.85;34.87
71149;BME280;59072;42.144;25.200;2023-08-31T08:53:34;99542.25;;;31.21;34.54
71149;BME280;59072;42.144;25.200;2023-08-31T08:56:00;99536.84;;;31.29;34.19
71149;BME280;59072;42.144;25.200;2023-08-31T08:58:38;99535.59;;;31.49;34.16
71149;BME280;59072;42.144;25.200;2023-08-31T09:01:04;99533.97;;;32.09;32.93
71149;BME280;59072;42.144;25.200;2023-08-31T09:03:38;99545.84;;;32.13;33.01
71149;BME280;59072;42.144;25.200;2023-08-31T09:06:04;99541.84;;;32.07;33.13
71149;BME280;59072;42.144;25.200;2023-08-31T09:08:41;99549.72;;;32.08;31.68
71149;BME280;59072;42.144;25.200;2023-08-31T09:11:43;99538.91;;;32.30;31.80
71149;BME280;59072;42.144;25.200;2023-08-31T09:14:56;99544.84;;;32.32;31.66
71149;BME280;59072;42.144;25.200;2023-08-31T09:17:43;99538.19;;;32.36;31.49
71149;BME280;59072;42.144;25.200;2023-08-31T09:20:12;99530.22;;;32.69;32.85
71149;BME280;59072;42.144;25.200;2023-08-31T09:22:56;99531.16;;;32.42;30.86
71149;BME280;59072;42.144;25.200;2023-08-31T09:28:45;99537.56;;;32.54;31.22
71149;BME280;59072;42.144;25.200;2023-08-31T09:31:11;99535.38;;;32.70;30.57
71149;BME280;59072;42.144;25.200;2023-08-31T09:33:52;99538.59;;;32.38;30.78
71149;BME280;59072;42.144;25.200;2023-08-31T09:36:49;99533.56;;;32.48;31.58
71149;BME280;59072;42.144;25.200;2023-08-31T09:39:21;99540.91;;;32.70;30.39
71149;BME280;59072;42.144;25.200;2023-08-31T09:41:54;99511.06;;;32.87;30.10
71149;BME280;59072;42.144;25.200;2023-08-31T09:44:20;99526.78;;;33.31;29.60
71149;BME280;59072;42.144;25.200;2023-08-31T09:46:47;99520.25;;;33.64;29.00
71149;BME280;59072;42.144;25.200;2023-08-31T09:49:22;99522.09;;;33.46;28.37
71149;BME280;59072;42.144;25.200;2023-08-31T09:57:50;99527.34;;;33.02;28.85
71149;BME280;59072;42.144;25.200;2023-08-31T10:00:26;99519.31;;;33.42;28.92
71149;BME280;59072;42.144;25.200;2023-08-31T10:02:54;99516.69;;;33.64;27.17
71149;BME280;59072;42.144;25.200;2023-08-31T10:05:33;99527.56;;;34.30;27.43
71149;BME280;59072;42.144;25.200;2023-08-31T10:10:59;99515.31;;;34.27;27.22
71149;BME280;59072;42.144;25.200;2023-08-31T10:13:38;99520.09;;;34.73;26.63
71149;BME280;59072;42.144;25.200;2023-08-31T10:16:45;99518.53;;;34.69;25.45
71149;BME280;59072;42.144;25.200;2023-08-31T10:19:35;99513.38;;;34.46;26.11
71149;BME280;59072;42.144;25.200;2023-08-31T10:22:01;99520.91;;;34.70;26.14
71149;BME280;59072;42.144;25.200;2023-08-31T10:25:01;99529.22;;;34.85;25.21
71149;BME280;59072;42.144;25.200;2023-08-31T10:27:43;99514.97;;;34.86;24.76
71149;BME280;59072;42.144;25.200;2023-08-31T10:30:53;99528.00;;;35.00;24.50
71149;BME280;59072;42.144;25.200;2023-08-31T10:33:23;99514.88;;;35.33;24.87
71149;BME280;59072;42.144;25.200;2023-08-31T10:36:09;99507.81;;;35.03;24.32
71149;BME280;59072;42.144;25.200;2023-08-31T10:38:35;99506.22;;;35.09;26.29
71149;BME280;59072;42.144;25.200;2023-08-31T10:41:33;99506.22;;;35.06;26.96
71149;BME280;59072;42.144;25.200;2023-08-31T10:44:31;99510.97;;;34.98;24.45
71149;BME280;59072;42.144;25.200;2023-08-31T10:47:36;99514.91;;;34.32;25.62
71149;BME280;59072;42.144;25.200;2023-08-31T10:50:21;99515.72;;;34.26;25.79
71149;BME280;59072;42.144;25.200;2023-08-31T10:56:28;99512.94;;;33.31;28.28
71149;BME280;59072;42.144;25.200;2023-08-31T10:59:24;99511.47;;;33.55;27.00
71149;BME280;59072;42.144;25.200;2023-08-31T11:02:27;99509.19;;;33.71;27.22
71149;BME280;59072;42.144;25.200;2023-08-31T11:05:27;99506.72;;;33.48;25.89
71149;BME280;59072;42.144;25.200;2023-08-31T11:07:52;99514.50;;;33.25;26.86
71149;BME280;59072;42.144;25.200;2023-08-31T11:10:27;99504.34;;;33.43;27.70
71149;BME280;59072;42.144;25.200;2023-08-31T11:12:54;99504.03;;;33.62;26.78
71149;BME280;59072;42.144;25.200;2023-08-31T11:15:28;99502.78;;;33.56;27.35
71149;BME280;59072;42.144;25.200;2023-08-31T11:17:55;99506.84;;;33.77;26.01
71149;BME280;59072;42.144;25.200;2023-08-31T11:20:30;99496.47;;;33.52;26.32
71149;BME280;59072;42.144;25.200;2023-08-31T11:22:56;99496.41;;;33.38;26.33
71149;BME280;59072;42.144;25.200;2023-08-31T11:25:34;99493.34;;;33.57;27.49
71149;BME280;59072;42.144;25.200;2023-08-31T11:30:59;99491.03;;;33.77;25.57
71149;BME280;59072;42.144;25.200;2023-08-31T11:33:36;99485.03;;;33.57;25.83
71149;BME280;59072;42.144;25.200;2023-08-31T11:36:03;99477.50;;;33.47;25.84
71149;BME280;59072;42.144;25.200;2023-08-31T11:38:37;99494.88;;;33.48;26.34
71149;BME280;59072;42.144;25.200;2023-08-31T11:44:38;99505.00;;;33.22;26.78
71149;BME280;59072;42.144;25.200;2023-08-31T11:47:04;99502.22;;;33.22;26.57
71149;BME280;59072;42.144;25.200;2023-08-31T11:49:40;99485.19;;;33.09;26.31
71149;BME280;59072;42.144;25.200;2023-08-31T11:52:06;99504.41;;;32.95;26.48
71149;BME280;59072;42.144;25.200;2023-08-31T11:54:32;99496.91;;;32.92;28.15
71149;BME280;59072;42.144;25.200;2023-08-31T11:57:36;99504.41;;;32.95;26.38
71149;BME280;59072;42.144;25.200;2023-08-31T12:00:26;99497.59;;;32.81;26.40
71149;BME280;59072;42.144;25.200;2023-08-31T12:03:26;99496.50;;;32.90;26.77
71149;BME280;59072;42.144;25.200;2023-08-31T12:05:55;99492.13;;;32.89;27.04
71149;BME280;59072;42.144;25.200;2023-08-31T12:08:33;99499.00;;;32.61;27.50
71149;BME280;59072;42.144;25.200;2023-08-31T12:11:20;99504.91;;;32.18;27.83
71149;BME280;59072;42.144;25.200;2023-08-31T12:13:59;99486.78;;;31.83;28.61
71149;BME280;59072;42.144;25.200;2023-08-31T12:16:44;99497.88;;;31.91;28.83
71149;BME280;59072;42.144;25.200;2023-08-31T12:19:33;99483.91;;;31.73;28.70
71149;BME280;59072;42.144;25.200;2023-08-31T12:21:58;99487.16;;;31.82;29.91
71149;BME280;59072;42.144;25.200;2023-08-31T12:24:44;99484.88;;;31.88;32.88
71149;BME280;59072;42.144;25.200;2023-08-31T12:27:45;99483.22;;;31.83;33.61
71149;BME280;59072;42.144;25.200;2023-08-31T12:30:36;99482.69;;;31.40;36.19
71149;BME280;59072;42.144;25.200;2023-08-31T12:33:01;99484.81;;;31.23;34.90
71149;BME280;59072;42.144;25.200;2023-08-31T12:35:39;99485.72;;;31.31;35.78
71149;BME280;59072;42.144;25.200;2023-08-31T12:38:05;99485.59;;;31.20;36.30
71149;BME280;59072;42.144;25.200;2023-08-31T12:40:39;99489.59;;;31.27;34.57
71149;BME280;59072;42.144;25.200;2023-08-31T12:43:07;99491.38;;;31.42;33.34
71149;BME280;59072;42.144;25.200;2023-08-31T12:45:42;99484.59;;;31.36;32.51
71149;BME280;59072;42.144;25.200;2023-08-31T12:48:07;99492.34;;;31.27;31.32
71149;BME280;59072;42.144;25.200;2023-08-31T12:50:42;99502.19;;;31.28;30.70
71149;BME280;59072;42.144;25.200;2023-08-31T12:53:08;99487.84;;;31.15;30.98
71149;BME280;59072;42.144;25.200;2023-08-31T12:55:54;99489.13;;;31.21;31.77
71149;BME280;59072;42.144;25.200;2023-08-31T12:58:45;99490.06;;;31.06;35.55
71149;BME280;59072;42.144;25.200;2023-08-31T13:01:47;99490.84;;;30.56;36.74
71149;BME280;59072;42.144;25.200;2023-08-31T13:04:15;99483.84;;;30.59;34.37
71149;BME280;59072;42.144;25.200;2023-08-31T13:07:04;99466.53;;;30.16;39.55
71149;BME280;59072;42.144;25.200;2023-08-31T13:09:56;99458.94;;;29.86;40.54
71149;BME280;59072;42.144;25.200;2023-08-31T13:12:49;99457.63;;;29.41;44.58
71149;BME280;59072;42.144;25.200;2023-08-31T13:15:15;99445.63;;;29.30;47.43
71149;BME280;59072;42.144;25.200;2023-08-31T13:17:51;99441.44;;;29.00;48.44
71149;BME280;59072;42.144;25.200;2023-08-31T13:20:16;99428.41;;;29.13;47.19
71149;BME280;59072;42.144;25.200;2023-08-31T13:22:54;99441.94;;;29.61;44.35
71149;BME280;59072;42.144;25.200;2023-08-31T13:25:19;99436.25;;;30.85;41.82
71149;BME280;59072;42.144;25.200;2023-08-31T13:27:57;99426.56;;;31.89;42.78
71149;BME280;59072;42.144;25.200;2023-08-31T13:30:23;99429.81;;;32.88;39.18
71149;BME280;59072;42.144;25.200;2023-08-31T13:33:01;99442.63;;;32.62;36.76
71149;BME280;59072;42.144;25.200;2023-08-31T13:35:57;99445.59;;;32.39;38.11
71149;BME280;59072;42.144;25.200;2023-08-31T13:38:26;99462.81;;;32.73;37.14
71149;BME280;59072;42.144;25.200;2023-08-31T13:41:00;99455.94;;;33.05;36.11
71149;BME280;59072;42.144;25.200;2023-08-31T13:43:28;99464.47;;;32.85;33.66
71149;BME280;59072;42.144;25.200;2023-08-31T13:45:53;99465.81;;;32.54;33.13
71149;BME280;59072;42.144;25.200;2023-08-31T13:48:19;99468.31;;;32.66;33.30
71149;BME280;59072;42.144;25.200;2023-08-31T13:51:02;99473.44;;;31.86;35.85
71149;BME280;59072;42.144;25.200;2023-08-31T13:53:32;99475.72;;;31.80;38.60
71149;BME280;59072;42.144;25.200;2023-08-31T13:56:04;99463.59;;;31.88;37.81
71149;BME280;59072;42.144;25.200;2023-08-31T13:58:29;99452.53;;;31.84;37.82
71149;BME280;59072;42.144;25.200;2023-08-31T14:01:06;99459.50;;;31.75;41.98
71149;BME280;59072;42.144;25.200;2023-08-31T14:03:34;99459.44;;;31.68;42.90
71149;BME280;59072;42.144;25.200;2023-08-31T14:06:08;99462.88;;;31.57;41.05
71149;BME280;59072;42.144;25.200;2023-08-31T14:08:33;99455.72;;;31.53;39.98
71149;BME280;59072;42.144;25.200;2023-08-31T14:11:17;99467.19;;;31.58;40.90